createdAt,value
2023-02-27T00:00:00.037Z,2.70
2023-02-27T00:02:26.805Z,2.70
2023-02-27T00:04:54.457Z,2.70
2023-02-27T00:07:25.803Z,2.60
2023-02-27T00:09:53.124Z,2.50
2023-02-27T00:12:19.753Z,2.40
2023-02-27T00:14:46.314Z,2.50
2023-02-27T00:17:12.893Z,2.40
2023-02-27T00:19:39.466Z,2.40
2023-02-27T00:22:06.083Z,2.40
2023-02-27T00:24:32.688Z,2.40
2023-02-27T00:26:59.413Z,2.40
2023-02-27T00:29:26.220Z,2.10
2023-02-27T00:31:53.182Z,2.10
2023-02-27T00:34:19.866Z,2.20
2023-02-27T00:36:46.514Z,2.30
2023-02-27T00:39:14.389Z,2.20
2023-02-27T00:41:41.092Z,2.20
2023-02-27T00:44:07.844Z,2.30
2023-02-27T00:46:34.417Z,2.30
2023-02-27T00:49:01.085Z,2.30
2023-02-27T00:51:27.931Z,2.20
2023-02-27T00:53:54.939Z,2.10
2023-02-27T00:56:21.572Z,2.10
2023-02-27T00:58:48.437Z,2.10
2023-02-27T01:01:15.284Z,2.00
2023-02-27T01:03:41.949Z,2.00
2023-02-27T01:06:08.633Z,2.10
2023-02-27T01:08:35.206Z,2.00
2023-02-27T01:11:01.785Z,2.00
2023-02-27T01:13:28.516Z,2.00
2023-02-27T01:15:55.119Z,2.10
2023-02-27T01:18:21.768Z,2.10
2023-02-27T01:20:53.281Z,2.10
2023-02-27T01:23:20.127Z,2.00
2023-02-27T01:25:47.792Z,2.00
2023-02-27T01:28:15.079Z,2.00
2023-02-27T01:30:42.000Z,2.00
2023-02-27T01:33:08.808Z,2.00
2023-02-27T01:35:35.832Z,2.00
2023-02-27T01:38:02.417Z,2.00
2023-02-27T01:40:29.222Z,2.00
2023-02-27T01:42:55.868Z,2.00
2023-02-27T01:45:39.319Z,1.80
2023-02-27T01:48:21.590Z,1.60
2023-02-27T01:51:01.184Z,1.60
2023-02-27T01:53:30.179Z,1.70
2023-02-27T01:56:06.271Z,1.70
2023-02-27T01:58:33.892Z,1.80
2023-02-27T02:01:00.675Z,1.80
2023-02-27T02:03:46.200Z,1.90
2023-02-27T02:06:12.929Z,1.70
2023-02-27T02:08:45.581Z,1.70
2023-02-27T02:11:15.138Z,1.60
2023-02-27T02:13:42.257Z,1.70
2023-02-27T02:16:23.579Z,1.70
2023-02-27T02:19:34.654Z,1.90
2023-02-27T02:22:04.212Z,1.70
2023-02-27T02:25:17.739Z,1.70
2023-02-27T02:28:04.634Z,1.80
2023-02-27T02:31:07.215Z,1.80
2023-02-27T02:33:54.077Z,1.70
2023-02-27T02:36:42.084Z,1.70
2023-02-27T02:39:41.603Z,1.70
2023-02-27T02:42:24.136Z,1.70
2023-02-27T02:45:24.397Z,1.70
2023-02-27T02:48:13.276Z,1.50
2023-02-27T02:51:01.339Z,1.60
2023-02-27T02:53:46.233Z,1.60
2023-02-27T02:56:24.349Z,1.70
2023-02-27T02:59:02.875Z,1.70
2023-02-27T03:01:42.046Z,1.60
2023-02-27T03:04:22.160Z,1.50
2023-02-27T03:07:06.180Z,1.60
2023-02-27T03:09:38.413Z,1.30
2023-02-27T03:12:10.562Z,1.30
2023-02-27T03:15:00.346Z,1.30
2023-02-27T03:17:35.743Z,1.30
2023-02-27T03:20:08.150Z,1.20
2023-02-27T03:22:40.012Z,1.20
2023-02-27T03:25:10.361Z,1.20
2023-02-27T03:27:43.899Z,1.10
2023-02-27T03:30:37.477Z,1.20
2023-02-27T03:33:11.614Z,1.10
2023-02-27T03:36:04.653Z,1.20
2023-02-27T03:38:38.171Z,1.10
2023-02-27T03:41:32.763Z,1.20
2023-02-27T03:44:21.144Z,1.10
2023-02-27T03:46:47.718Z,1.20
2023-02-27T03:49:14.338Z,1.30
2023-02-27T03:51:41.032Z,1.20
2023-02-27T03:54:19.150Z,1.20
2023-02-27T03:57:01.945Z,1.20
2023-02-27T03:59:30.284Z,1.20
2023-02-27T04:01:58.311Z,1.20
2023-02-27T04:04:27.504Z,1.10
2023-02-27T04:07:25.357Z,1.20
2023-02-27T04:09:57.922Z,1.20
2023-02-27T04:12:30.774Z,1.10
2023-02-27T04:15:14.121Z,1.00
2023-02-27T04:17:58.369Z,1.00
2023-02-27T04:20:44.351Z,1.00
2023-02-27T04:23:35.491Z,1.00
2023-02-27T04:26:20.299Z,1.00
2023-02-27T04:28:59.595Z,1.10
2023-02-27T04:31:42.390Z,0.90
2023-02-27T04:34:29.062Z,1.00
2023-02-27T04:37:08.193Z,0.80
2023-02-27T04:39:53.255Z,0.90
2023-02-27T04:42:31.094Z,1.00
2023-02-27T04:45:02.566Z,1.00
2023-02-27T04:47:34.705Z,0.90
2023-02-27T04:50:09.628Z,0.80
2023-02-27T04:52:43.452Z,0.70
2023-02-27T04:55:41.287Z,0.60
2023-02-27T04:58:10.763Z,0.80
2023-02-27T05:00:40.550Z,0.70
2023-02-27T05:03:23.893Z,0.60
2023-02-27T05:05:54.755Z,0.80
2023-02-27T05:08:42.563Z,0.80
2023-02-27T05:11:20.290Z,0.60
2023-02-27T05:13:53.487Z,0.80
2023-02-27T05:16:22.105Z,0.70
2023-02-27T05:18:49.470Z,0.70
2023-02-27T05:21:38.924Z,0.90
2023-02-27T05:24:13.742Z,0.80
2023-02-27T05:27:04.942Z,0.80
2023-02-27T05:29:57.729Z,0.70
2023-02-27T05:32:35.354Z,0.80
2023-02-27T05:35:03.056Z,0.80
2023-02-27T05:37:42.458Z,0.80
2023-02-27T05:40:12.379Z,0.80
2023-02-27T05:43:09.254Z,0.60
2023-02-27T05:45:39.154Z,0.60
2023-02-27T05:48:14.727Z,0.70
2023-02-27T05:50:43.286Z,0.70
2023-02-27T05:53:15.257Z,0.80
2023-02-27T05:55:46.921Z,0.90
2023-02-27T05:58:36.658Z,0.50
2023-02-27T06:01:06.809Z,0.40
2023-02-27T06:03:35.444Z,0.40
2023-02-27T06:06:08.454Z,0.40
2023-02-27T06:08:35.790Z,0.40
2023-02-27T06:11:02.775Z,0.30
2023-02-27T06:13:29.551Z,0.30
2023-02-27T06:15:56.180Z,0.30
2023-02-27T06:18:23.056Z,0.30
2023-02-27T06:20:50.097Z,0.20
2023-02-27T06:23:17.175Z,0.30
2023-02-27T06:25:43.847Z,0.30
2023-02-27T06:28:11.300Z,0.40
2023-02-27T06:30:38.413Z,0.40
2023-02-27T06:33:05.388Z,0.50
2023-02-27T06:35:32.166Z,0.40
2023-02-27T06:37:58.885Z,0.10
2023-02-27T06:40:25.651Z,0.00
2023-02-27T06:42:52.303Z,0.10
2023-02-27T06:45:19.030Z,0.20
2023-02-27T06:47:45.794Z,0.40
2023-02-27T06:50:14.138Z,0.30
2023-02-27T06:52:41.490Z,0.40
2023-02-27T06:55:09.546Z,0.40
2023-02-27T06:57:36.315Z,0.30
2023-02-27T07:00:06.921Z,0.30
2023-02-27T07:02:33.551Z,0.50
2023-02-27T07:05:00.236Z,0.40
2023-02-27T07:07:35.189Z,0.60
2023-02-27T07:10:08.663Z,0.30
2023-02-27T07:12:35.293Z,0.10
2023-02-27T07:15:01.902Z,0.20
2023-02-27T07:17:28.470Z,0.20
2023-02-27T07:19:55.136Z,0.10
2023-02-27T07:22:21.743Z,0.10
2023-02-27T07:24:48.448Z,0.20
2023-02-27T07:27:15.070Z,0.20
2023-02-27T07:29:42.126Z,0.30
2023-02-27T07:32:08.880Z,0.30
2023-02-27T07:34:35.509Z,0.30
2023-02-27T07:37:02.082Z,0.50
2023-02-27T07:39:28.740Z,0.40
2023-02-27T07:41:55.322Z,0.50
2023-02-27T07:44:21.996Z,0.40
2023-02-27T07:46:48.702Z,0.40
2023-02-27T07:49:15.532Z,0.50
2023-02-27T07:51:42.214Z,0.50
2023-02-27T07:54:08.777Z,0.60
2023-02-27T07:56:35.603Z,0.80
2023-02-27T07:59:02.316Z,0.70
2023-02-27T08:01:28.926Z,0.80
2023-02-27T08:03:56.353Z,0.90
2023-02-27T08:06:23.926Z,1.20
2023-02-27T08:08:51.721Z,1.50
2023-02-27T08:11:19.320Z,1.50
2023-02-27T08:14:02.808Z,1.20
2023-02-27T08:16:30.998Z,1.10
2023-02-27T08:18:58.205Z,1.20
2023-02-27T08:21:25.330Z,1.50
2023-02-27T08:23:52.165Z,1.60
2023-02-27T08:26:19.127Z,1.40
2023-02-27T08:28:45.811Z,1.60
2023-02-27T08:31:12.814Z,1.80
2023-02-27T08:33:39.481Z,2.00
2023-02-27T08:36:07.375Z,2.00
2023-02-27T08:38:33.966Z,1.70
2023-02-27T08:41:00.545Z,1.70
2023-02-27T08:43:27.153Z,1.80
2023-02-27T08:45:53.930Z,1.90
2023-02-27T08:48:20.696Z,1.90
2023-02-27T08:50:47.643Z,1.90
2023-02-27T08:53:14.410Z,2.50
2023-02-27T08:55:42.442Z,2.60
2023-02-27T08:58:10.261Z,2.60
2023-02-27T09:00:37.001Z,2.50
2023-02-27T09:03:03.779Z,2.50
2023-02-27T09:05:30.478Z,2.50
2023-02-27T09:07:57.047Z,2.30
2023-02-27T09:10:23.798Z,2.30
2023-02-27T09:12:50.449Z,2.40
2023-02-27T09:15:17.628Z,2.50
2023-02-27T09:17:44.377Z,2.60
2023-02-27T09:20:12.159Z,2.60
2023-02-27T09:22:39.505Z,2.30
2023-02-27T09:25:06.451Z,2.50
2023-02-27T09:27:33.924Z,2.60
2023-02-27T09:30:00.573Z,2.50
2023-02-27T09:32:27.554Z,2.50
2023-02-27T09:34:54.379Z,2.90
2023-02-27T09:37:21.100Z,2.90
2023-02-27T09:39:47.839Z,2.70
2023-02-27T09:42:33.420Z,2.90
2023-02-27T09:45:05.978Z,3.30
2023-02-27T09:47:40.670Z,3.00
2023-02-27T09:50:45.259Z,3.20
2023-02-27T09:53:18.904Z,3.10
2023-02-27T09:55:47.035Z,3.20
2023-02-27T09:58:32.136Z,3.20
2023-02-27T10:01:08.326Z,3.10
2023-02-27T10:03:41.611Z,3.50
2023-02-27T10:06:27.979Z,3.10
2023-02-27T10:09:29.084Z,3.30
2023-02-27T10:12:21.723Z,3.60
2023-02-27T10:14:59.390Z,3.60
2023-02-27T10:17:31.416Z,3.50
2023-02-27T10:20:01.079Z,3.30
2023-02-27T10:22:41.915Z,3.70
2023-02-27T10:25:30.738Z,3.90
2023-02-27T10:28:08.716Z,3.70
2023-02-27T10:30:35.595Z,3.70
2023-02-27T10:33:10.112Z,3.80
2023-02-27T10:35:42.918Z,4.10
2023-02-27T10:38:17.858Z,4.90
2023-02-27T10:40:46.264Z,5.60
2023-02-27T10:43:19.008Z,5.90
2023-02-27T10:45:45.656Z,5.60
2023-02-27T10:48:13.178Z,5.70
2023-02-27T10:50:45.237Z,5.50
2023-02-27T10:53:38.203Z,5.60
2023-02-27T10:56:07.884Z,5.30
2023-02-27T10:58:36.794Z,5.50
2023-02-27T11:01:09.395Z,5.60
2023-02-27T11:03:41.388Z,5.60
2023-02-27T11:06:24.339Z,6.40
2023-02-27T11:09:09.630Z,6.00
2023-02-27T11:11:36.296Z,6.60
2023-02-27T11:14:32.818Z,6.20
2023-02-27T11:17:01.712Z,6.30
2023-02-27T11:19:39.314Z,6.40
2023-02-27T11:22:11.978Z,5.90
2023-02-27T11:24:38.940Z,5.90
2023-02-27T11:27:18.890Z,6.20
2023-02-27T11:30:00.326Z,6.40
2023-02-27T11:32:51.491Z,6.00
2023-02-27T11:35:29.084Z,6.50
2023-02-27T11:37:59.664Z,6.70
2023-02-27T11:40:40.806Z,6.80
2023-02-27T11:43:29.290Z,6.70
2023-02-27T11:46:09.897Z,6.90
2023-02-27T11:48:48.919Z,6.80
2023-02-27T11:51:49.615Z,7.00
2023-02-27T11:54:55.140Z,7.20
2023-02-27T11:57:37.999Z,7.20
2023-02-27T12:00:19.615Z,7.60
2023-02-27T12:03:05.201Z,7.70
2023-02-27T12:05:47.628Z,7.70
2023-02-27T12:08:28.690Z,7.70
2023-02-27T12:11:28.247Z,7.60
2023-02-27T12:14:21.108Z,7.80
2023-02-27T12:16:54.760Z,8.20
2023-02-27T12:19:39.935Z,8.00
2023-02-27T12:22:19.053Z,8.10
2023-02-27T12:24:55.763Z,8.10
2023-02-27T12:27:46.799Z,8.00
2023-02-27T12:30:21.140Z,7.80
2023-02-27T12:33:00.176Z,7.80
2023-02-27T12:35:33.220Z,8.00
2023-02-27T12:38:00.579Z,8.10
2023-02-27T12:40:45.023Z,8.20
2023-02-27T12:43:20.825Z,8.20
2023-02-27T12:46:07.625Z,8.60
2023-02-27T12:48:59.160Z,9.10
2023-02-27T12:51:51.513Z,9.10
2023-02-27T12:54:35.475Z,8.90
2023-02-27T12:57:21.313Z,9.20
2023-02-27T13:00:11.272Z,9.30
2023-02-27T13:02:52.766Z,9.40
2023-02-27T13:05:42.858Z,10.00
2023-02-27T13:08:18.307Z,9.80
2023-02-27T13:11:23.349Z,9.90
2023-02-27T13:14:13.212Z,10.10
2023-02-27T13:16:46.225Z,10.00
2023-02-27T13:19:19.950Z,10.20
2023-02-27T13:21:51.329Z,10.10
2023-02-27T13:24:43.508Z,10.10
2023-02-27T13:27:21.451Z,10.20
2023-02-27T13:30:03.525Z,10.30
2023-02-27T13:33:13.985Z,10.70
2023-02-27T13:36:05.819Z,10.80
2023-02-27T13:38:45.985Z,10.00
2023-02-27T13:41:24.952Z,10.80
2023-02-27T13:43:55.942Z,10.30
2023-02-27T13:46:30.723Z,9.70
2023-02-27T13:49:09.267Z,9.60
2023-02-27T13:51:43.423Z,9.10
2023-02-27T13:54:16.264Z,9.10
2023-02-27T13:56:55.112Z,8.60
2023-02-27T13:59:30.512Z,8.80
2023-02-27T14:02:11.233Z,8.50
2023-02-27T14:04:52.628Z,8.60
2023-02-27T14:07:25.127Z,8.10
2023-02-27T14:10:00.838Z,8.10
2023-02-27T14:12:46.604Z,8.20
2023-02-27T14:15:22.239Z,7.80
2023-02-27T14:18:15.766Z,7.70
2023-02-27T14:20:50.854Z,8.20
2023-02-27T14:23:17.504Z,8.40
2023-02-27T14:25:49.958Z,9.10
2023-02-27T14:28:31.187Z,9.80
2023-02-27T14:31:03.980Z,9.60
2023-02-27T14:33:41.669Z,9.70
2023-02-27T14:36:14.990Z,9.50
2023-02-27T14:38:41.717Z,9.10
2023-02-27T14:41:36.272Z,8.60
2023-02-27T14:44:03.989Z,8.40
2023-02-27T14:46:41.083Z,8.10
2023-02-27T14:49:21.664Z,8.10
2023-02-27T14:51:48.993Z,8.30
2023-02-27T14:54:36.921Z,8.60
2023-02-27T14:57:06.344Z,8.80
2023-02-27T14:59:45.815Z,8.80
2023-02-27T15:02:24.131Z,8.40
2023-02-27T15:05:15.734Z,8.00
2023-02-27T15:07:47.329Z,8.20
2023-02-27T15:10:33.333Z,7.90
2023-02-27T15:13:01.217Z,8.00
2023-02-27T15:15:28.232Z,8.20
2023-02-27T15:17:55.864Z,8.50
2023-02-27T15:20:29.597Z,8.70
2023-02-27T15:23:01.603Z,8.50
2023-02-27T15:25:28.323Z,8.60
2023-02-27T15:28:00.523Z,8.40
2023-02-27T15:30:27.431Z,8.20
2023-02-27T15:32:55.864Z,8.90
2023-02-27T15:35:44.637Z,9.40
2023-02-27T15:38:38.894Z,9.80
2023-02-27T15:41:17.344Z,10.00
2023-02-27T15:43:44.315Z,9.30
2023-02-27T15:46:11.006Z,8.90
2023-02-27T15:48:37.909Z,8.90
2023-02-27T15:51:04.833Z,9.20
2023-02-27T15:53:33.854Z,9.30
2023-02-27T15:56:09.310Z,9.40
2023-02-27T15:58:38.938Z,9.60
2023-02-27T16:01:13.098Z,9.90
2023-02-27T16:03:46.116Z,10.10
2023-02-27T16:06:17.695Z,10.40
2023-02-27T16:08:51.118Z,10.30
2023-02-27T16:11:19.667Z,10.60
2023-02-27T16:13:46.368Z,10.50
2023-02-27T16:16:24.299Z,10.60
2023-02-27T16:18:53.532Z,10.60
2023-02-27T16:21:24.808Z,10.00
2023-02-27T16:23:52.343Z,9.70
2023-02-27T16:26:33.019Z,9.50
2023-02-27T16:29:15.126Z,9.30
2023-02-27T16:31:54.875Z,9.10
2023-02-27T16:34:45.437Z,8.70
2023-02-27T16:37:32.070Z,9.00
2023-02-27T16:39:58.644Z,9.20
2023-02-27T16:42:25.300Z,9.00
2023-02-27T16:44:51.906Z,8.50
2023-02-27T16:47:19.757Z,8.30
2023-02-27T16:49:47.243Z,8.50
2023-02-27T16:52:13.860Z,8.40
2023-02-27T16:54:40.515Z,8.30
2023-02-27T16:57:07.120Z,8.00
2023-02-27T16:59:36.096Z,7.70
2023-02-27T17:02:05.580Z,7.80
2023-02-27T17:04:32.579Z,7.60
2023-02-27T17:07:01.115Z,7.60
2023-02-27T17:09:28.314Z,7.70
2023-02-27T17:11:56.069Z,7.50
2023-02-27T17:14:23.882Z,7.60
2023-02-27T17:16:50.596Z,7.40
2023-02-27T17:19:17.435Z,7.40
2023-02-27T17:21:44.082Z,7.20
2023-02-27T17:24:10.754Z,7.20
2023-02-27T17:26:37.498Z,7.30
2023-02-27T17:29:05.132Z,7.20
2023-02-27T17:31:32.151Z,7.00
2023-02-27T17:33:58.737Z,6.90
2023-02-27T17:36:25.723Z,7.00
2023-02-27T17:38:57.482Z,6.80
2023-02-27T17:41:24.360Z,6.80
2023-02-27T17:43:55.829Z,6.60
2023-02-27T17:46:24.686Z,6.50
2023-02-27T17:48:51.736Z,6.50
2023-02-27T17:51:19.387Z,6.30
2023-02-27T17:53:46.164Z,6.40
2023-02-27T17:56:13.975Z,6.30
2023-02-27T17:58:41.490Z,6.40
2023-02-27T18:01:13.821Z,6.40
2023-02-27T18:03:41.333Z,6.60
2023-02-27T18:06:08.088Z,6.70
2023-02-27T18:08:34.807Z,6.80
2023-02-27T18:11:01.512Z,6.60
2023-02-27T18:13:28.598Z,6.50
2023-02-27T18:15:56.431Z,6.40
2023-02-27T18:18:23.744Z,6.40
2023-02-27T18:21:01.358Z,6.30
2023-02-27T18:23:28.164Z,6.40
2023-02-27T18:25:59.541Z,6.40
2023-02-27T18:28:27.137Z,6.70
2023-02-27T18:30:54.078Z,6.90
2023-02-27T18:33:22.873Z,7.00
2023-02-27T18:35:49.858Z,7.00
2023-02-27T18:38:16.686Z,6.80
2023-02-27T18:40:43.471Z,6.70
2023-02-27T18:43:11.285Z,6.50
2023-02-27T18:45:38.186Z,6.30
2023-02-27T18:48:05.347Z,6.30
2023-02-27T18:50:32.260Z,6.20
2023-02-27T18:53:00.186Z,5.80
2023-02-27T18:55:27.205Z,5.90
2023-02-27T18:57:53.824Z,5.80
2023-02-27T19:00:21.896Z,5.50
2023-02-27T19:02:48.543Z,5.50
2023-02-27T19:05:15.260Z,5.50
2023-02-27T19:07:42.392Z,5.50
2023-02-27T19:10:10.179Z,5.60
2023-02-27T19:12:36.912Z,5.60
2023-02-27T19:15:04.744Z,5.50
2023-02-27T19:17:31.363Z,5.60
2023-02-27T19:19:57.934Z,5.30
2023-02-27T19:22:29.220Z,5.10
2023-02-27T19:24:56.767Z,5.20
2023-02-27T19:27:23.532Z,5.10
2023-02-27T19:29:50.474Z,5.20
2023-02-27T19:32:17.161Z,5.20
2023-02-27T19:34:43.821Z,5.10
2023-02-27T19:37:10.385Z,4.80
2023-02-27T19:39:37.199Z,4.70
2023-02-27T19:42:03.890Z,4.70
2023-02-27T19:44:30.552Z,4.80
2023-02-27T19:46:57.201Z,4.90
2023-02-27T19:49:23.815Z,4.80
2023-02-27T19:51:50.774Z,4.70
2023-02-27T19:54:17.473Z,4.60
2023-02-27T19:56:44.180Z,4.40
2023-02-27T19:59:12.626Z,4.40
2023-02-27T20:01:39.760Z,4.50
2023-02-27T20:04:07.919Z,4.60
2023-02-27T20:06:43.846Z,4.60
2023-02-27T20:09:14.272Z,4.40
2023-02-27T20:11:43.359Z,4.40
2023-02-27T20:14:10.509Z,4.30
2023-02-27T20:16:37.372Z,4.40
2023-02-27T20:19:05.037Z,4.40
2023-02-27T20:21:33.084Z,4.30
2023-02-27T20:24:00.864Z,4.30
2023-02-27T20:26:39.272Z,4.30
2023-02-27T20:29:18.825Z,4.10
2023-02-27T20:31:47.341Z,4.20
2023-02-27T20:34:21.683Z,4.20
2023-02-27T20:36:52.441Z,4.10
2023-02-27T20:39:20.040Z,4.00
2023-02-27T20:41:46.984Z,4.00
2023-02-27T20:44:13.782Z,4.00
2023-02-27T20:46:42.594Z,4.10
2023-02-27T20:49:11.565Z,4.20
2023-02-27T20:51:39.782Z,4.40
2023-02-27T20:54:16.561Z,4.20
2023-02-27T20:56:43.684Z,4.20
2023-02-27T20:59:13.488Z,4.10
2023-02-27T21:01:41.265Z,4.00
2023-02-27T21:04:08.268Z,4.00
2023-02-27T21:06:35.444Z,3.80
2023-02-27T21:09:05.768Z,4.00
2023-02-27T21:11:33.181Z,3.90
2023-02-27T21:14:09.080Z,3.90
2023-02-27T21:16:36.596Z,3.80
2023-02-27T21:19:03.644Z,3.90
2023-02-27T21:21:34.222Z,3.90
2023-02-27T21:24:00.956Z,4.10
2023-02-27T21:26:38.851Z,4.20
2023-02-27T21:29:15.236Z,4.10
2023-02-27T21:31:48.763Z,4.20
2023-02-27T21:34:21.436Z,4.10
2023-02-27T21:36:49.331Z,3.90
2023-02-27T21:39:19.329Z,4.10
2023-02-27T21:41:46.183Z,4.00
2023-02-27T21:44:15.690Z,4.10
2023-02-27T21:46:42.630Z,4.00
2023-02-27T21:49:31.126Z,3.90
2023-02-27T21:51:57.736Z,4.00
2023-02-27T21:54:24.850Z,4.10
2023-02-27T21:56:51.586Z,4.30
2023-02-27T21:59:20.749Z,4.20
2023-02-27T22:01:48.142Z,4.40
2023-02-27T22:04:16.654Z,4.30
2023-02-27T22:06:43.753Z,4.40
2023-02-27T22:09:10.356Z,4.40
2023-02-27T22:11:37.069Z,4.20
2023-02-27T22:14:05.522Z,4.10
2023-02-27T22:16:32.286Z,3.70
2023-02-27T22:18:58.877Z,3.80
2023-02-27T22:21:27.530Z,3.90
2023-02-27T22:23:56.300Z,3.80
2023-02-27T22:26:25.649Z,3.70
2023-02-27T22:28:52.781Z,3.70
2023-02-27T22:31:29.045Z,3.80
2023-02-27T22:34:01.149Z,3.80
2023-02-27T22:36:30.571Z,3.70
2023-02-27T22:38:58.160Z,3.50
2023-02-27T22:41:28.119Z,3.50
2023-02-27T22:43:55.428Z,3.70
2023-02-27T22:46:28.352Z,3.70
2023-02-27T22:48:57.104Z,3.50
2023-02-27T22:51:25.243Z,3.40
2023-02-27T22:54:00.721Z,3.20
2023-02-27T22:56:27.564Z,3.20
2023-02-27T22:58:54.213Z,3.30
2023-02-27T23:01:26.295Z,3.20
2023-02-27T23:03:55.978Z,3.10
2023-02-27T23:06:28.334Z,3.00
2023-02-27T23:08:55.152Z,3.10
2023-02-27T23:11:22.057Z,3.00
2023-02-27T23:13:49.216Z,3.10
2023-02-27T23:16:17.023Z,3.20
2023-02-27T23:18:46.671Z,3.00
2023-02-27T23:21:14.931Z,3.10
2023-02-27T23:23:41.974Z,3.10
2023-02-27T23:26:09.079Z,2.90
2023-02-27T23:28:36.676Z,2.80
2023-02-27T23:31:05.709Z,2.90
2023-02-27T23:33:33.090Z,2.90
2023-02-27T23:36:00.786Z,2.90
2023-02-27T23:38:28.267Z,2.90
2023-02-27T23:40:55.323Z,3.00
2023-02-27T23:43:22.821Z,2.90
2023-02-27T23:45:49.717Z,2.80
2023-02-27T23:48:16.502Z,2.90
2023-02-27T23:50:44.420Z,2.90
2023-02-27T23:53:13.204Z,2.90
2023-02-27T23:55:40.494Z,2.90
2023-02-27T23:58:09.568Z,3.10
